Trebic, Czech Republic
Current Conditions -  °F | °C
As of 7:00 AM on Saturday 25 Oct 2014 (Local Time) from LKNA Reporting Station
Overcast Overcast  
Wind Chill: 36°   Ceiling: 900
Heat Index: 36°   Visibility: 6mi
Dew Point: 34°   Wind: 1mph
Humidity: 93%   Direction: NA
Pressure: 30.18"   Gusts: NA
Location:  49.22°N, 15.87°E
Report Text: LKNA 250500Z VRB01KT 9999 BKN009 OVC012 02/01 Q1022 NOSIG
Loading
Personal Weather Stations






























Interactive Weather Map
Tropical Storm Tracking
New forecast layout! Learn more

10-Day Weather Forecast

Advertisements
Track Severe Weather on mobile